Ana Sayfa
METAR-TAF:

METAR-TAF

Havaalanları :

Taree, Avustralya

Enlem: 31-53-19S, Boylam: 152-30-50E, yükseklik: 12 m

Güncel hava durumu gözlemi

Rapor saat 20:00 UTC de 41 dakika önce yapıldı.
Sakin rüzgar
Sıcaklık 19°C
Nem 94%
Basınç 1011 hPa
2500 ft yükseklikte çok bulutlu

METAR: YTRE 132000Z AUTO 00000KT //// // OVC025 19/18 Q1011

Saat: 07:41 (20:41 UTC)

Tahmin

Rapor saat 17:51 UTC de 2 saat ve 50 dakika önce yapıldı.
Ayın 13'si saat 19 UTC'den ayın 14'si saat 08 UTC'ye kadar geçerli Tahmin
Rüzgar değişken yönden 3 kt
Görüş mesafesi: 8000 m
1000 ft yükseklikte parçalı bulutlu
2000 ft yükseklikte parçalı çok bulutlu
(Hafif) Duman
Ayın 14'si saat 0000 UTC'den
Rüzgar doğudan 13 kt
Görüş mesafesi 10 km veya daha fazla
3000 ft yükseklikte parçalı bulutlu
Olasılık 30%
ayın 13'si saat 19 UTC'den ayın 13'si saat 22 UTC'ye kadar
Görüş mesafesi: 2000 m
Duman

TAF: YTRE 131751Z 1319/1408 VRB03KT 8000 -FU SCT010 BKN020 FM140000 08013KT 9999 SCT030 PROB30 1319/1322 2000 FU

4.000'den fazla havaalanı için hava durumu gözlemleri ve tahminleri (METAR ve TAF raporları).

Kullanılabilir istasyonlar harita üzerinde sarı ve kırmızı noktalarla gösterilir.

İstasyonun adını görmek için fareyi noktanın üzerinde gezdirin.

Sonrasında hava gözlem ve tahminlerini görmek için tıklayın.

Haritayı değiştirmek için: yaklaştırmak için siyah artı işaretli yeşil düğmeye ve uzaklaştırmak için de eksi işaretli düğmeye hızla tıklayın; bitişik haritalar için yeşil okları kullanın.


METAR-TAF: